Dream Angel — 3EEV — position and weather

sailwx.info

Track history (hours):
 
Tides and Currents Weather Stations Pressure Air Temp Water Temp Dewpoint Dewpoint Depression Visibility Wind Speed Wind Dir Waves Ship Positions

Dream Angel

Last reported at 2015-May-24 08:20 UTC. Time now 2015-May-25 11:35 UTC.
Position N 34°46' W 126°51'.

Length 187 m; draft 7.3 m.

Type: Ship. MMSI: 371820000.

Date/timePositionNaut miles runAvg speedWind from/ knotsBaromVisibWave heightAir tempDewpointWater temp
2015-May-24 08:20N 34°46' W 126°51'10515.0
2015-May-24 01:17N 34°15' W 124°49'5815.4
2015-May-23 21:33N 34°07' W 123°40'27114.0
2015-May-23 02:15N 33°41' W 118°15'4 5.9
2015-May-23 01:33N 33°45' W 118°16'1 0.7
2015-May-23 00:31N 33°46' W 118°15'0 0.0
2015-May-22 23:31N 33°46' W 118°15'0 0.0
2015-May-22 22:31N 33°46' W 118°15'0 0.0
2015-May-22 21:31N 33°46' W 118°15'0 0.0
2015-May-22 20:31N 33°46' W 118°15'0 0.0
2015-May-22 19:31N 33°46' W 118°15'0 0.0
2015-May-22 18:31N 33°46' W 118°15'0 0.0
2015-May-22 17:31N 33°46' W 118°15'0 0.0
2015-May-22 16:31N 33°46' W 118°15'0 0.0
2015-May-22 15:31N 33°46' W 118°15'0 0.0
2015-May-22 14:31N 33°46' W 118°15'0 0.0
2015-May-22 13:31N 33°46' W 118°15'0 0.0
2015-May-22 12:31N 33°46' W 118°15'0 0.0
2015-May-22 11:31N 33°46' W 118°15'0 0.0
2015-May-22 10:31N 33°46' W 118°15'0 0.0
2015-May-22 09:31N 33°46' W 118°15'0 0.0
2015-May-22 08:31N 33°46' W 118°15'0 0.0
2015-May-22 07:31N 33°46' W 118°15'0 0.0
2015-May-22 06:31N 33°46' W 118°15'0 0.0
2015-May-22 05:31N 33°46' W 118°15'0 0.0
2015-May-22 04:28N 33°46' W 118°15'0 0.0
2015-May-22 03:31N 33°46' W 118°15'0 0.0
2015-May-22 02:31N 33°46' W 118°15'0 0.0
2015-May-22 01:31N 33°46' W 118°15'0 0.0
2015-May-22 00:31N 33°46' W 118°15'0 0.0
2015-May-21 23:28N 33°46' W 118°15'0 0.0
2015-May-21 22:31N 33°46' W 118°15'0 0.0
2015-May-21 21:31N 33°46' W 118°15'0 0.0
2015-May-21 20:31N 33°46' W 118°15'0 0.0
2015-May-21 19:31N 33°46' W 118°15'0 0.0
2015-May-21 18:31N 33°46' W 118°15'0 0.0
2015-May-21 17:31N 33°46' W 118°15'0 0.0
2015-May-21 16:31N 33°46' W 118°15'0 0.0
2015-May-21 15:31N 33°46' W 118°15'0 0.0
2015-May-21 14:31N 33°46' W 118°15'0 0.0
2015-May-21 13:34N 33°46' W 118°15'4 0.5
2015-May-21 06:12N 33°43' W 118°13'0 0.0
2015-May-20 23:27N 33°43' W 118°13'0 0.0
2015-May-20 21:27N 33°43' W 118°13'0 0.0
2015-May-20 20:06N 33°43' W 118°13'0 0.0
2015-May-20 19:15N 33°43' W 118°13'0 0.0
2015-May-20 17:24N 33°43' W 118°13'0 0.0
2015-May-20 16:15N 33°43' W 118°13'0 0.1
2015-May-20 15:24N 33°43' W 118°13'0 0.0
2015-May-20 14:19N 33°43' W 118°13'0 0.0
2015-May-20 12:33N 33°43' W 118°13'0 0.0
2015-May-20 11:33N 33°43' W 118°13'0 0.0
2015-May-20 10:27N 33°43' W 118°13'0 0.0
2015-May-20 09:09N 33°43' W 118°13'0 0.0
2015-May-20 07:09N 33°43' W 118°13'0 0.1
2015-May-20 06:09N 33°43' W 118°13'0 0.0
2015-May-20 04:33N 33°43' W 118°13'0 0.0
2015-May-20 03:33N 33°43' W 118°13'0 0.0
2015-May-20 02:27N 33°43' W 118°13'0 0.0
2015-May-20 01:30N 33°43' W 118°13'0 0.0
2015-May-20 00:31N 33°43' W 118°13'0 0.0
2015-May-19 23:18N 33°43' W 118°13'0 0.0
2015-May-19 22:27N 33°43' W 118°13'0 0.1
2015-May-19 21:33N 33°43' W 118°13'0 0.0
2015-May-19 20:33N 33°43' W 118°13'0 0.0
2015-May-19 19:24N 33°43' W 118°13'0 0.1
2015-May-19 18:30N 33°43' W 118°13'0 0.0
2015-May-19 17:03N 33°43' W 118°13'0 0.0
2015-May-19 16:24N 33°43' W 118°13'0 0.0
2015-May-19 15:33N 33°43' W 118°13'0 0.0
2015-May-19 14:30N 33°43' W 118°13'0 0.0
2015-May-19 13:27N 33°43' W 118°13'0 0.0
2015-May-19 12:30N 33°43' W 118°13'0 0.0
2015-May-19 10:03N 33°43' W 118°13'0 0.0
2015-May-19 09:27N 33°43' W 118°13'0 0.0
2015-May-19 08:33N 33°43' W 118°13'4 3.6
2015-May-19 07:33N 33°45' W 118°16'2 1.7
2015-May-19 06:31N 33°46' W 118°15'0 0.0
2015-May-19 05:31N 33°46' W 118°15'0 0.1
2015-May-19 04:31N 33°46' W 118°15'0 0.0
2015-May-19 03:31N 33°46' W 118°15'0 0.0
2015-May-19 02:22N 33°46' W 118°15'0 0.1
2015-May-19 01:31N 33°46' W 118°15'0 0.0
2015-May-19 00:31N 33°46' W 118°15'1 1.2
2015-May-18 23:33N 33°45' W 118°16'6 6.3
2015-May-18 22:33N 33°39' W 118°13'9 6.8
2015-May-18 21:16N 33°36' W 118°23'197 8.2
2015-May-17 21:16N 34°48' W 122°05'1115.5
2015-May-17 20:33N 34°57' W 122°12'1615.8
2015-May-17 19:33N 35°11' W 122°21'1615.8
2015-May-17 18:33N 35°25' W 122°32'1715.6
2015-May-17 17:29N 35°39' W 122°42'1415.2
2015-May-17 16:33N 35°51' W 122°51'1515.4
2015-May-17 15:33N 36°04' W 123°02'3215.6
2015-May-17 13:31N 36°31' W 123°22'1515.8
2015-May-17 12:33N 36°44' W 123°32'1615.7
2015-May-17 11:33N 36°58' W 123°42'1715.7
2015-May-17 10:29N 37°12' W 123°53'1515.6
2015-May-17 09:30N 37°25' W 124°03'1716.3
2015-May-17 08:28N 37°39' W 124°14'2216.4
2015-May-17 07:06N 37°58' W 124°29'1115.6
2015-May-17 06:25N 38°09' W 124°32'1415.8
2015-May-17 05:30N 38°23' W 124°35'43315.5
2015-May-16 01:33N 45°35' W 125°15'1717.0
2015-May-16 00:33N 45°52' W 125°15'1615.7
2015-May-15 23:33N 46°08' W 125°15'1616.0
2015-May-15 22:34N 46°24' W 125°15'1615.8
2015-May-15 21:34N 46°39' W 125°16'1915.8
2015-May-15 20:21N 46°58' W 125°19'7114.5
2015-May-15 15:28N 48°09' W 125°24'1414.9
2015-May-15 14:32N 48°21' W 125°12'1414.2
2015-May-15 13:33N 48°31' W 124°57'3316.1
2015-May-15 11:30N 48°21' W 124°09'1515.5
2015-May-15 10:33N 48°17' W 123°48'1413.7
2015-May-15 09:33N 48°18' W 123°28'1111.5
2015-May-15 08:34N 48°24' W 123°14'1615.8
2015-May-15 07:34N 48°40' W 123°15'1312.9
2015-May-15 06:33N 48°50' W 123°02'1616.4
2015-May-15 05:33N 49°02' W 123°19'9 9.4
2015-May-15 04:33N 49°07' W 123°07'9 8.7
2015-May-15 03:33N 49°11' W 122°55'0 0.0
2015-May-15 02:33N 49°11' W 122°55'0 0.0
2015-May-15 01:33N 49°11' W 122°55'0 0.0
2015-May-15 00:33N 49°11' W 122°55'0 0.0
2015-May-14 23:33N 49°11' W 122°55'0 0.0
2015-May-14 22:33N 49°11' W 122°55'0 0.0
2015-May-14 21:34N 49°11' W 122°55'5 4.5
2015-May-14 20:34N 49°09' W 123°02'1010.3
2015-May-14 19:33N 49°07' W 123°17'1010.3
2015-May-14 18:33N 48°58' W 123°10'1313.4
2015-May-14 17:33N 48°44' W 123°06'1312.8
2015-May-14 16:33N 48°32' W 123°11'1211.8
2015-May-14 15:33N 48°22' W 123°20'8 8.4
2015-May-14 14:33N 48°15' W 123°27'9 9.1
2015-May-14 13:33N 48°10' W 123°15'1818.2
2015-May-14 12:33N 48°12' W 122°48'1818.0
2015-May-14 11:33N 47°57' W 122°32'1616.0
2015-May-14 10:33N 47°41' W 122°27'1717.2
2015-May-14 09:33N 47°25' W 122°21'8 8.5
2015-May-14 08:33N 47°16' W 122°24'  
Track history (hours):
 
Tides and Currents Weather Stations Pressure Air Temp Water Temp Dewpoint Dewpoint Depression Visibility Wind Speed Wind Dir Waves Ship Positions

Dream Angel

Last reported at 2015-May-24 08:20 UTC. Time now 2015-May-25 11:35 UTC.
Position N 34°46' W 126°51'.

Length 187 m; draft 7.3 m.

Type: Ship. MMSI: 371820000.

Date/timePositionNaut miles runAvg speedWind from/ knotsBaromVisibWave heightAir tempDewpointWater temp
2015-May-24 08:20N 34°46' W 126°51'10515.0
2015-May-24 01:17N 34°15' W 124°49'5815.4
2015-May-23 21:33N 34°07' W 123°40'27114.0
2015-May-23 02:15N 33°41' W 118°15'4 5.9
2015-May-23 01:33N 33°45' W 118°16'1 0.7
2015-May-23 00:31N 33°46' W 118°15'0 0.0
2015-May-22 23:31N 33°46' W 118°15'0 0.0
2015-May-22 22:31N 33°46' W 118°15'0 0.0
2015-May-22 21:31N 33°46' W 118°15'0 0.0
2015-May-22 20:31N 33°46' W 118°15'0 0.0
2015-May-22 19:31N 33°46' W 118°15'0 0.0
2015-May-22 18:31N 33°46' W 118°15'0 0.0
2015-May-22 17:31N 33°46' W 118°15'0 0.0
2015-May-22 16:31N 33°46' W 118°15'0 0.0
2015-May-22 15:31N 33°46' W 118°15'0 0.0
2015-May-22 14:31N 33°46' W 118°15'0 0.0
2015-May-22 13:31N 33°46' W 118°15'0 0.0
2015-May-22 12:31N 33°46' W 118°15'0 0.0
2015-May-22 11:31N 33°46' W 118°15'0 0.0
2015-May-22 10:31N 33°46' W 118°15'0 0.0
2015-May-22 09:31N 33°46' W 118°15'0 0.0
2015-May-22 08:31N 33°46' W 118°15'0 0.0
2015-May-22 07:31N 33°46' W 118°15'0 0.0
2015-May-22 06:31N 33°46' W 118°15'0 0.0
2015-May-22 05:31N 33°46' W 118°15'0 0.0
2015-May-22 04:28N 33°46' W 118°15'0 0.0
2015-May-22 03:31N 33°46' W 118°15'0 0.0
2015-May-22 02:31N 33°46' W 118°15'0 0.0
2015-May-22 01:31N 33°46' W 118°15'0 0.0
2015-May-22 00:31N 33°46' W 118°15'0 0.0
2015-May-21 23:28N 33°46' W 118°15'0 0.0
2015-May-21 22:31N 33°46' W 118°15'0 0.0
2015-May-21 21:31N 33°46' W 118°15'0 0.0
2015-May-21 20:31N 33°46' W 118°15'0 0.0
2015-May-21 19:31N 33°46' W 118°15'0 0.0
2015-May-21 18:31N 33°46' W 118°15'0 0.0
2015-May-21 17:31N 33°46' W 118°15'0 0.0
2015-May-21 16:31N 33°46' W 118°15'0 0.0
2015-May-21 15:31N 33°46' W 118°15'0 0.0
2015-May-21 14:31N 33°46' W 118°15'0 0.0
2015-May-21 13:34N 33°46' W 118°15'4 0.5
2015-May-21 06:12N 33°43' W 118°13'0 0.0
2015-May-20 23:27N 33°43' W 118°13'0 0.0
2015-May-20 21:27N 33°43' W 118°13'0 0.0
2015-May-20 20:06N 33°43' W 118°13'0 0.0
2015-May-20 19:15N 33°43' W 118°13'0 0.0
2015-May-20 17:24N 33°43' W 118°13'0 0.0
2015-May-20 16:15N 33°43' W 118°13'0 0.1
2015-May-20 15:24N 33°43' W 118°13'0 0.0
2015-May-20 14:19N 33°43' W 118°13'0 0.0
2015-May-20 12:33N 33°43' W 118°13'0 0.0
2015-May-20 11:33N 33°43' W 118°13'0 0.0
2015-May-20 10:27N 33°43' W 118°13'0 0.0
2015-May-20 09:09N 33°43' W 118°13'0 0.0
2015-May-20 07:09N 33°43' W 118°13'0 0.1
2015-May-20 06:09N 33°43' W 118°13'0 0.0
2015-May-20 04:33N 33°43' W 118°13'0 0.0
2015-May-20 03:33N 33°43' W 118°13'0 0.0
2015-May-20 02:27N 33°43' W 118°13'0 0.0
2015-May-20 01:30N 33°43' W 118°13'0 0.0
2015-May-20 00:31N 33°43' W 118°13'0 0.0
2015-May-19 23:18N 33°43' W 118°13'0 0.0
2015-May-19 22:27N 33°43' W 118°13'0 0.1
2015-May-19 21:33N 33°43' W 118°13'0 0.0
2015-May-19 20:33N 33°43' W 118°13'0 0.0
2015-May-19 19:24N 33°43' W 118°13'0 0.1
2015-May-19 18:30N 33°43' W 118°13'0 0.0
2015-May-19 17:03N 33°43' W 118°13'0 0.0
2015-May-19 16:24N 33°43' W 118°13'0 0.0
2015-May-19 15:33N 33°43' W 118°13'0 0.0
2015-May-19 14:30N 33°43' W 118°13'0 0.0
2015-May-19 13:27N 33°43' W 118°13'0 0.0
2015-May-19 12:30N 33°43' W 118°13'0 0.0
2015-May-19 10:03N 33°43' W 118°13'0 0.0
2015-May-19 09:27N 33°43' W 118°13'0 0.0
2015-May-19 08:33N 33°43' W 118°13'4 3.6
2015-May-19 07:33N 33°45' W 118°16'2 1.7
2015-May-19 06:31N 33°46' W 118°15'0 0.0
2015-May-19 05:31N 33°46' W 118°15'0 0.1
2015-May-19 04:31N 33°46' W 118°15'0 0.0
2015-May-19 03:31N 33°46' W 118°15'0 0.0
2015-May-19 02:22N 33°46' W 118°15'0 0.1
2015-May-19 01:31N 33°46' W 118°15'0 0.0
2015-May-19 00:31N 33°46' W 118°15'1 1.2
2015-May-18 23:33N 33°45' W 118°16'6 6.3
2015-May-18 22:33N 33°39' W 118°13'9 6.8
2015-May-18 21:16N 33°36' W 118°23'197 8.2
2015-May-17 21:16N 34°48' W 122°05'1115.5
2015-May-17 20:33N 34°57' W 122°12'1615.8
2015-May-17 19:33N 35°11' W 122°21'1615.8
2015-May-17 18:33N 35°25' W 122°32'1715.6
2015-May-17 17:29N 35°39' W 122°42'1415.2
2015-May-17 16:33N 35°51' W 122°51'1515.4
2015-May-17 15:33N 36°04' W 123°02'3215.6
2015-May-17 13:31N 36°31' W 123°22'1515.8
2015-May-17 12:33N 36°44' W 123°32'1615.7
2015-May-17 11:33N 36°58' W 123°42'1715.7
2015-May-17 10:29N 37°12' W 123°53'1515.6
2015-May-17 09:30N 37°25' W 124°03'1716.3
2015-May-17 08:28N 37°39' W 124°14'2216.4
2015-May-17 07:06N 37°58' W 124°29'1115.6
2015-May-17 06:25N 38°09' W 124°32'1415.8
2015-May-17 05:30N 38°23' W 124°35'43315.5
2015-May-16 01:33N 45°35' W 125°15'1717.0
2015-May-16 00:33N 45°52' W 125°15'1615.7
2015-May-15 23:33N 46°08' W 125°15'1616.0
2015-May-15 22:34N 46°24' W 125°15'1615.8
2015-May-15 21:34N 46°39' W 125°16'1915.8
2015-May-15 20:21N 46°58' W 125°19'7114.5
2015-May-15 15:28N 48°09' W 125°24'1414.9
2015-May-15 14:32N 48°21' W 125°12'1414.2
2015-May-15 13:33N 48°31' W 124°57'3316.1
2015-May-15 11:30N 48°21' W 124°09'1515.5
2015-May-15 10:33N 48°17' W 123°48'1413.7
2015-May-15 09:33N 48°18' W 123°28'1111.5
2015-May-15 08:34N 48°24' W 123°14'1615.8
2015-May-15 07:34N 48°40' W 123°15'1312.9
2015-May-15 06:33N 48°50' W 123°02'1616.4
2015-May-15 05:33N 49°02' W 123°19'9 9.4
2015-May-15 04:33N 49°07' W 123°07'9 8.7
2015-May-15 03:33N 49°11' W 122°55'0 0.0
2015-May-15 02:33N 49°11' W 122°55'0 0.0
2015-May-15 01:33N 49°11' W 122°55'0 0.0
2015-May-15 00:33N 49°11' W 122°55'0 0.0
2015-May-14 23:33N 49°11' W 122°55'0 0.0
2015-May-14 22:33N 49°11' W 122°55'0 0.0
2015-May-14 21:34N 49°11' W 122°55'5 4.5
2015-May-14 20:34N 49°09' W 123°02'1010.3
2015-May-14 19:33N 49°07' W 123°17'1010.3
2015-May-14 18:33N 48°58' W 123°10'1313.4
2015-May-14 17:33N 48°44' W 123°06'1312.8
2015-May-14 16:33N 48°32' W 123°11'1211.8
2015-May-14 15:33N 48°22' W 123°20'8 8.4
2015-May-14 14:33N 48°15' W 123°27'9 9.1
2015-May-14 13:33N 48°10' W 123°15'1818.2
2015-May-14 12:33N 48°12' W 122°48'1818.0
2015-May-14 11:33N 47°57' W 122°32'1616.0
2015-May-14 10:33N 47°41' W 122°27'1717.2
2015-May-14 09:33N 47°25' W 122°21'8 8.5
2015-May-14 08:33N 47°16' W 122°24'  

Dump ship's entire track history